Time;durP1;ratioP1;P1;durP2;ratioP2;P2;SDS_P1;SDS_P2;PMS_P1;PMS_P2;Temp;Humidity;BMP_temperature;BMP_pressure;BME280_temperature;BME280_humidity;BME280_pressure;Samples;Min_cycle;Max_cycle;Signal;HPM_P1;HPM_P2
2022/09/16 00:01:20;;;;;;;2.90;2.70;;;14.70;83.50;;;;;;5025690;28;20124;-59
2022/09/16 00:03:46;;;;;;;5.70;2.85;;;14.70;83.80;;;;;;5030560;28;20123;-61
2022/09/16 00:06:27;;;;;;;3.92;3.00;;;14.70;83.80;;;;;;5026289;28;20041;-61
2022/09/16 00:08:55;;;;;;;3.40;3.10;;;14.80;83.80;;;;;;5029738;28;20048;-61
2022/09/16 00:11:21;;;;;;;5.38;3.40;;;14.80;83.40;;;;;;5027010;28;20045;-62
2022/09/16 00:13:47;;;;;;;3.10;2.90;;;14.80;83.30;;;;;;5025670;28;20056;-62
2022/09/16 00:16:20;;;;;;;3.42;3.13;;;14.70;83.10;;;;;;5028030;28;20435;-60
2022/09/16 00:18:46;;;;;;;3.42;3.13;;;14.70;83.30;;;;;;5026874;28;20118;-61
2022/09/16 00:21:12;;;;;;;3.78;3.17;;;14.70;83.40;;;;;;5027722;28;20617;-62
2022/09/16 00:23:38;;;;;;;3.35;3.08;;;14.70;83.80;;;;;;5029719;28;20037;-61
2022/09/16 00:26:04;;;;;;;3.53;3.22;;;14.70;84.00;;;;;;5024394;28;20072;-62
2022/09/16 00:28:30;;;;;;;3.50;3.20;;;14.70;84.20;;;;;;5029090;28;20574;-62
2022/09/16 00:30:59;;;;;;;4.50;3.67;;;14.70;84.20;;;;;;5025490;28;20579;-62
2022/09/16 00:33:26;;;;;;;3.85;3.55;;;14.80;84.40;;;;;;5027809;28;20135;-61
2022/09/16 00:36:03;;;;;;;4.45;3.50;;;14.90;85.20;;;;;;5026190;28;20053;-60
2022/09/16 00:38:28;;;;;;;4.35;3.58;;;14.90;84.30;;;;;;5025300;28;20120;-61
2022/09/16 00:40:54;;;;;;;3.92;3.22;;;14.90;84.20;;;;;;5025087;28;20500;-60
2022/09/16 00:43:19;;;;;;;4.32;3.25;;;14.90;84.10;;;;;;5025324;28;20065;-59
2022/09/16 00:45:58;;;;;;;4.32;3.03;;;15.00;84.10;;;;;;5023559;28;20060;-61
2022/09/16 00:48:26;;;;;;;3.45;3.08;;;15.00;84.00;;;;;;5031624;28;20386;-62
2022/09/16 00:51:02;;;;;;;3.78;2.75;;;15.10;83.90;;;;;;5031408;28;20055;-62
2022/09/16 00:53:31;;;;;;;3.30;2.75;;;15.10;84.10;;;;;;5032961;28;20029;-58
2022/09/16 00:55:59;;;;;;;3.78;3.38;;;15.10;83.90;;;;;;5033408;28;20025;-61
2022/09/16 00:58:33;;;;;;;3.08;2.67;;;15.20;84.00;;;;;;5032725;28;20035;-61
2022/09/16 01:00:59;;;;;;;4.03;2.65;;;15.20;84.00;;;;;;5031898;28;20017;-62
2022/09/16 01:03:27;;;;;;;5.05;3.17;;;15.20;83.90;;;;;;5030648;28;20057;-59
2022/09/16 01:05:53;;;;;;;3.45;2.83;;;15.20;83.80;;;;;;5031424;28;20076;-60
2022/09/16 01:08:19;;;;;;;3.28;2.97;;;15.20;83.70;;;;;;5030380;28;20029;-59
2022/09/16 01:10:45;;;;;;;4.93;3.15;;;15.30;83.80;;;;;;5028952;28;20086;-61
2022/09/16 01:13:14;;;;;;;3.30;3.00;;;15.30;83.80;;;;;;5030695;28;20563;-60
2022/09/16 01:16:01;;;;;;;3.50;3.20;;;15.30;83.60;;;;;;5029412;28;20029;-61
2022/09/16 01:18:48;;;;;;;3.33;3.13;;;15.30;83.60;;;;;;5027321;28;20700;-61
2022/09/16 01:21:25;;;;;;;3.15;2.80;;;15.30;83.40;;;;;;5031852;28;20451;-61
2022/09/16 01:24:15;;;;;;;3.33;2.95;;;15.30;83.30;;;;;;5028306;28;20321;-60
2022/09/16 01:27:06;;;;;;;5.35;3.28;;;15.30;83.20;;;;;;5031760;28;20037;-62
2022/09/16 01:29:56;;;;;;;5.10;3.53;;;15.30;83.30;;;;;;5030617;28;20042;-61
2022/09/16 01:32:27;;;;;;;4.10;3.30;;;15.30;83.20;;;;;;5027672;28;20037;-60
2022/09/16 01:35:15;;;;;;;5.47;3.40;;;15.20;82.90;;;;;;5029187;28;20044;-60
2022/09/16 01:37:49;;;;;;;3.88;3.10;;;15.20;83.00;;;;;;5031088;28;20591;-61
2022/09/16 01:40:33;;;;;;;3.28;2.97;;;15.20;82.90;;;;;;5028929;28;20452;-60
2022/09/16 01:43:03;;;;;;;6.43;3.38;;;15.20;83.30;;;;;;5029639;28;20444;-62
2022/09/16 01:45:38;;;;;;;3.50;3.20;;;15.10;83.20;;;;;;5029046;28;20068;-61
2022/09/16 01:48:23;;;;;;;3.97;3.45;;;15.10;83.40;;;;;;5032400;28;20033;-61
2022/09/16 01:51:09;;;;;;;3.22;2.92;;;15.10;83.30;;;;;;5027572;28;20071;-62
2022/09/16 01:53:53;;;;;;;4.18;3.10;;;15.10;83.40;;;;;;5029588;28;20037;-62
2022/09/16 01:56:45;;;;;;;4.18;3.47;;;15.10;83.70;;;;;;5031156;28;20037;-62
2022/09/16 01:59:21;;;;;;;3.08;2.78;;;15.10;84.10;;;;;;5031343;28;20037;-62
2022/09/16 02:02:08;;;;;;;3.95;3.30;;;15.10;84.00;;;;;;5029854;28;20041;-61
2022/09/16 02:04:41;;;;;;;4.22;3.30;;;15.10;83.90;;;;;;5030682;28;20116;-61
2022/09/16 02:07:09;;;;;;;3.80;3.50;;;15.10;83.90;;;;;;5033107;28;20041;-61
2022/09/16 02:09:50;;;;;;;4.75;3.38;;;15.10;83.80;;;;;;5029328;28;20508;-62
2022/09/16 02:12:29;;;;;;;5.25;3.80;;;15.10;83.80;;;;;;5027218;28;20068;-61
2022/09/16 02:15:02;;;;;;;5.28;3.85;;;15.20;83.60;;;;;;5029666;28;20045;-61
2022/09/16 02:17:32;;;;;;;4.53;3.22;;;15.20;83.60;;;;;;5034731;28;20103;-61
2022/09/16 02:20:06;;;;;;;4.18;3.63;;;15.20;83.50;;;;;;5028579;28;20126;-59
2022/09/16 02:22:37;;;;;;;3.95;3.55;;;15.10;83.60;;;;;;5028968;28;20045;-62
2022/09/16 02:25:05;;;;;;;4.28;3.55;;;15.10;83.70;;;;;;5028965;28;20505;-61
2022/09/16 02:27:33;;;;;;;4.22;3.70;;;15.10;83.80;;;;;;5028554;28;20539;-59
2022/09/16 02:30:04;;;;;;;6.30;3.75;;;15.10;84.00;;;;;;5030217;28;20052;-61
2022/09/16 02:32:32;;;;;;;4.30;3.90;;;15.10;84.90;;;;;;5027763;28;20044;-61
2022/09/16 02:34:59;;;;;;;6.22;4.05;;;15.10;84.00;;;;;;5030283;28;20026;-61
2022/09/16 02:37:46;;;;;;;5.60;3.83;;;15.20;84.00;;;;;;5030134;28;20033;-62
2022/09/16 02:40:23;;;;;;;5.10;3.65;;;15.20;84.10;;;;;;5028361;28;20037;-61
2022/09/16 02:42:48;;;;;;;4.72;4.30;;;15.10;84.50;;;;;;5029158;28;20108;-61
2022/09/16 02:45:15;;;;;;;4.50;4.10;;;15.10;84.00;;;;;;5031538;28;20184;-61
2022/09/16 02:48:02;;;;;;;5.40;3.95;;;15.10;84.10;;;;;;5029658;28;20037;-61
2022/09/16 02:50:43;;;;;;;4.40;3.80;;;15.10;84.10;;;;;;5030097;28;20049;-60
2022/09/16 02:53:22;;;;;;;6.20;4.38;;;15.10;84.30;;;;;;5031093;28;20404;-61
2022/09/16 02:56:04;;;;;;;4.72;3.55;;;15.10;84.50;;;;;;5029603;28;20036;-59
2022/09/16 02:58:30;;;;;;;4.47;4.05;;;15.10;84.60;;;;;;5035278;28;20073;-60
2022/09/16 03:00:57;;;;;;;7.65;4.18;;;15.10;84.30;;;;;;5034719;28;20069;-60
2022/09/16 03:03:23;;;;;;;5.65;4.25;;;15.10;84.30;;;;;;5036784;28;20029;-61
2022/09/16 03:06:07;;;;;;;5.15;4.03;;;15.20;84.30;;;;;;5031107;28;20044;-61
2022/09/16 03:08:34;;;;;;;5.00;4.23;;;15.20;84.50;;;;;;5034084;28;20033;-60
2022/09/16 03:11:28;;;;;;;5.75;4.50;;;15.20;84.10;;;;;;5033551;28;20536;-61
2022/09/16 03:14:12;;;;;;;4.85;4.38;;;15.20;84.20;;;;;;5036634;28;20037;-60
2022/09/16 03:16:51;;;;;;;6.22;3.97;;;15.30;84.10;;;;;;5034497;28;20045;-60
2022/09/16 03:19:39;;;;;;;4.97;4.47;;;15.30;84.00;;;;;;5033724;28;20029;-61
2022/09/16 03:22:26;;;;;;;4.95;4.25;;;15.30;85.20;;;;;;5033633;28;20034;-61
2022/09/16 03:25:11;;;;;;;4.40;4.00;;;15.30;84.30;;;;;;5033029;28;20037;-60
2022/09/16 03:27:49;;;;;;;5.15;4.45;;;15.30;84.20;;;;;;5031498;28;20688;-62
2022/09/16 03:30:15;;;;;;;5.53;4.65;;;15.30;84.30;;;;;;5033255;28;20044;-62
2022/09/16 03:32:53;;;;;;;5.28;4.72;;;15.40;84.10;;;;;;5035535;28;20041;-61
2022/09/16 03:35:32;;;;;;;4.68;4.28;;;15.40;84.20;;;;;;5033884;28;20041;-61
2022/09/16 03:38:00;;;;;;;6.00;4.35;;;15.40;84.30;;;;;;5036945;28;20419;-62
2022/09/16 03:40:28;;;;;;;6.13;4.72;;;15.40;84.20;;;;;;5033429;28;20026;-61
2022/09/16 03:42:56;;;;;;;5.95;4.25;;;15.40;84.30;;;;;;5034701;28;20052;-61
2022/09/16 03:45:22;;;;;;;4.65;4.20;;;15.40;84.30;;;;;;5036469;28;20030;-61
2022/09/16 03:47:49;;;;;;;5.05;4.47;;;15.40;84.30;;;;;;5031935;28;20534;-62
2022/09/16 03:50:16;;;;;;;5.18;4.72;;;15.50;84.40;;;;;;5032996;28;20044;-62
2022/09/16 03:52:42;;;;;;;8.45;4.63;;;15.50;84.50;;;;;;5036083;28;20292;-62
2022/09/16 03:55:09;;;;;;;5.07;4.50;;;15.50;84.40;;;;;;5032867;28;20045;-61
2022/09/16 03:57:35;;;;;;;5.65;4.50;;;15.50;84.30;;;;;;5030738;28;20409;-62
2022/09/16 04:00:02;;;;;;;7.03;4.35;;;15.60;84.30;;;;;;5027979;28;20033;-62
2022/09/16 04:02:28;;;;;;;5.05;4.45;;;15.60;84.30;;;;;;5036285;28;20033;-62
2022/09/16 04:04:53;;;;;;;5.00;4.50;;;15.60;84.30;;;;;;5030967;28;20040;-61
2022/09/16 04:07:19;;;;;;;6.45;4.70;;;15.60;84.20;;;;;;5028411;28;20025;-60
2022/09/16 04:09:44;;;;;;;5.28;4.57;;;15.60;84.20;;;;;;5029117;28;20041;-61
2022/09/16 04:12:10;;;;;;;5.03;4.47;;;15.60;84.20;;;;;;5023788;28;20055;-61
2022/09/16 04:14:35;;;;;;;6.35;4.95;;;15.60;84.10;;;;;;5030458;28;20079;-62
2022/09/16 04:17:02;;;;;;;5.85;4.88;;;15.70;84.10;;;;;;5027943;28;20116;-61
2022/09/16 04:19:27;;;;;;;5.70;4.97;;;15.70;84.10;;;;;;5029038;28;20040;-62
2022/09/16 04:21:53;;;;;;;6.97;4.90;;;15.60;84.00;;;;;;5031949;28;20032;-62
2022/09/16 04:24:18;;;;;;;5.30;4.72;;;15.60;84.10;;;;;;5032018;28;20052;-61
2022/09/16 04:26:44;;;;;;;7.05;5.07;;;15.60;84.20;;;;;;5033586;28;20065;-60
2022/09/16 04:29:10;;;;;;;5.72;5.22;;;15.60;84.30;;;;;;5024891;28;20057;-61
2022/09/16 04:31:36;;;;;;;7.53;5.47;;;15.60;84.50;;;;;;5022842;28;20712;-62
2022/09/16 04:34:03;;;;;;;5.72;4.70;;;15.60;84.50;;;;;;5024248;28;20043;-60
2022/09/16 04:36:29;;;;;;;6.95;4.85;;;15.60;84.50;;;;;;5029148;28;20107;-60
2022/09/16 04:38:54;;;;;;;6.30;5.40;;;15.60;84.60;;;;;;5026317;28;20152;-60
2022/09/16 04:41:22;;;;;;;6.90;5.40;;;15.60;84.60;;;;;;5027399;28;20029;-61
2022/09/16 04:43:54;;;;;;;6.10;5.50;;;15.60;84.60;;;;;;5035851;28;20551;-60
2022/09/16 04:46:21;;;;;;;6.65;4.72;;;15.70;84.80;;;;;;5031454;28;20455;-60
2022/09/16 04:48:48;;;;;;;5.80;5.28;;;15.70;84.80;;;;;;5035563;28;20041;-61
2022/09/16 04:51:14;;;;;;;6.38;5.57;;;15.70;84.80;;;;;;5035095;28;20029;-61
2022/09/16 04:53:42;;;;;;;5.95;5.22;;;15.70;84.70;;;;;;5035438;28;20033;-60
2022/09/16 04:56:14;;;;;;;6.78;5.30;;;15.80;84.60;;;;;;5032190;28;20037;-61
2022/09/16 04:58:45;;;;;;;5.88;5.35;;;15.80;84.50;;;;;;5032823;28;20132;-61
2022/09/16 05:01:25;;;;;;;5.45;4.63;;;15.80;84.30;;;;;;5033011;28;20372;-62
2022/09/16 05:03:53;;;;;;;7.43;5.05;;;15.80;84.30;;;;;;5036490;28;20033;-60
2022/09/16 05:06:24;;;;;;;6.78;5.35;;;15.80;84.30;;;;;;5033398;28;20045;-62
2022/09/16 05:08:52;;;;;;;6.45;5.57;;;15.80;84.30;;;;;;5034108;28;20124;-62
2022/09/16 05:11:23;;;;;;;6.43;5.07;;;15.80;84.20;;;;;;5038309;28;20033;-61
2022/09/16 05:13:49;;;;;;;6.03;5.03;;;15.90;84.30;;;;;;5036548;28;20037;-61
2022/09/16 05:16:17;;;;;;;6.07;5.32;;;15.90;84.30;;;;;;5035793;28;20377;-62
2022/09/16 05:18:45;;;;;;;7.28;5.32;;;15.90;84.30;;;;;;5036451;28;20445;-60
2022/09/16 05:21:14;;;;;;;5.97;5.38;;;15.90;84.30;;;;;;5035646;28;20037;-62
2022/09/16 05:23:40;;;;;;;5.57;5.07;;;15.90;84.40;;;;;;5033032;28;20041;-61
2022/09/16 05:26:09;;;;;;;8.00;5.38;;;15.90;84.40;;;;;;5031863;28;20037;-61
2022/09/16 05:28:35;;;;;;;7.43;5.72;;;16.00;84.40;;;;;;5034776;28;20045;-61
2022/09/16 05:31:12;;;;;;;6.90;4.75;;;16.00;84.30;;;;;;5036465;28;20033;-61
2022/09/16 05:33:42;;;;;;;9.68;5.43;;;16.00;84.20;;;;;;5033932;28;20064;-62
2022/09/16 05:36:11;;;;;;;6.32;5.20;;;16.00;84.10;;;;;;5031461;28;20036;-61
2022/09/16 05:38:37;;;;;;;6.43;5.38;;;16.00;84.00;;;;;;5034066;28;20041;-60
2022/09/16 05:41:04;;;;;;;6.00;5.20;;;16.00;84.00;;;;;;5032416;28;20037;-61
2022/09/16 05:43:31;;;;;;;6.35;5.05;;;16.10;83.90;;;;;;5033791;28;20044;-62
2022/09/16 05:45:56;;;;;;;8.68;5.32;;;16.10;83.90;;;;;;5019289;28;20034;-61
2022/09/16 05:48:22;;;;;;;5.45;4.95;;;16.10;83.90;;;;;;5011762;28;20073;-61
2022/09/16 05:50:57;;;;;;;5.88;5.28;;;16.10;83.80;;;;;;5006332;28;20405;-61
2022/09/16 05:53:24;;;;;;;5.32;4.80;;;16.10;83.70;;;;;;5007625;28;20025;-62
2022/09/16 05:55:58;;;;;;;5.32;4.82;;;16.20;83.60;;;;;;5011266;28;20037;-60
2022/09/16 05:58:26;;;;;;;6.68;5.10;;;16.20;83.80;;;;;;5011430;28;20525;-62
2022/09/16 06:01:01;;;;;;;9.15;5.22;;;16.20;83.60;;;;;;5011077;28;20069;-62
2022/09/16 06:03:27;;;;;;;5.22;4.72;;;16.20;83.60;;;;;;5012457;28;20114;-61
2022/09/16 06:06:04;;;;;;;6.43;4.80;;;16.20;83.70;;;;;;5012258;28;20072;-61
2022/09/16 06:08:33;;;;;;;6.82;4.97;;;16.20;83.70;;;;;;5010718;28;20521;-62
2022/09/16 06:11:03;;;;;;;6.18;5.13;;;16.20;83.60;;;;;;5009370;28;20069;-60
2022/09/16 06:13:30;;;;;;;7.80;5.55;;;16.20;83.90;;;;;;5009090;28;20046;-61
2022/09/16 06:15:55;;;;;;;9.60;5.60;;;16.30;83.80;;;;;;5011839;28;20041;-60
2022/09/16 06:18:23;;;;;;;8.27;5.70;;;16.30;83.80;;;;;;5012681;28;20082;-60
2022/09/16 06:20:49;;;;;;;6.20;5.22;;;16.30;83.80;;;;;;5010661;28;20061;-60
2022/09/16 06:23:15;;;;;;;9.23;5.13;;;16.40;83.80;;;;;;5020692;28;20063;-61
2022/09/16 06:25:42;;;;;;;9.63;5.25;;;16.40;83.70;;;;;;5033500;28;20041;-61
2022/09/16 06:28:08;;;;;;;8.68;5.28;;;16.40;83.70;;;;;;5030346;28;20126;-61
2022/09/16 06:30:34;;;;;;;6.93;4.85;;;16.50;83.60;;;;;;5031079;28;20025;-59
2022/09/16 06:33:00;;;;;;;7.18;5.00;;;16.50;83.60;;;;;;5031557;28;20370;-60
2022/09/16 06:35:26;;;;;;;8.52;5.20;;;16.50;83.60;;;;;;5030491;28;20049;-59
2022/09/16 06:37:53;;;;;;;12.15;5.20;;;16.60;83.40;;;;;;5030626;28;20552;-59
2022/09/16 06:40:18;;;;;;;7.43;5.13;;;16.60;83.40;;;;;;5032417;28;20124;-60
2022/09/16 06:42:44;;;;;;;7.07;4.65;;;16.60;83.50;;;;;;5032828;28;20120;-61
2022/09/16 06:45:10;;;;;;;10.20;4.80;;;16.60;83.30;;;;;;5027876;28;20040;-59
2022/09/16 06:47:35;;;;;;;5.75;4.53;;;16.60;83.20;;;;;;5033569;28;20033;-59
2022/09/16 06:50:03;;;;;;;7.85;4.47;;;16.60;83.20;;;;;;5026263;28;20322;-58
2022/09/16 06:52:29;;;;;;;5.85;4.43;;;16.60;83.30;;;;;;5029599;28;20048;-59
2022/09/16 06:54:54;;;;;;;5.43;4.40;;;16.70;83.30;;;;;;5031215;28;20404;-60
2022/09/16 06:57:22;;;;;;;5.00;4.50;;;16.70;83.30;;;;;;5026661;28;20069;-61
2022/09/16 06:59:48;;;;;;;5.00;4.50;;;16.70;83.30;;;;;;5025826;28;20033;-59
2022/09/16 07:02:15;;;;;;;6.50;4.82;;;16.70;83.30;;;;;;5029362;28;20025;-62
2022/09/16 07:04:41;;;;;;;4.80;4.35;;;16.70;83.30;;;;;;5029424;28;20030;-61
2022/09/16 07:07:06;;;;;;;5.50;4.90;;;16.80;83.30;;;;;;5028638;28;20484;-60
2022/09/16 07:09:32;;;;;;;7.20;4.63;;;16.80;83.30;;;;;;5030368;28;20037;-60
2022/09/16 07:11:58;;;;;;;5.40;4.75;;;16.80;83.20;;;;;;5027641;28;20536;-58
2022/09/16 07:14:24;;;;;;;5.50;4.78;;;16.80;83.20;;;;;;5031632;28;20044;-61
2022/09/16 07:16:50;;;;;;;6.03;4.97;;;16.90;83.20;;;;;;5031812;28;20119;-59
2022/09/16 07:19:15;;;;;;;5.93;5.13;;;16.90;83.00;;;;;;5029993;28;20051;-60
2022/09/16 07:21:41;;;;;;;5.32;4.75;;;16.90;82.80;;;;;;5031226;28;20386;-61
2022/09/16 07:24:10;;;;;;;9.20;5.20;;;16.90;82.70;;;;;;5025085;28;20033;-62
2022/09/16 07:26:36;;;;;;;7.22;5.18;;;17.00;82.50;;;;;;5028533;28;20037;-61
2022/09/16 07:29:05;;;;;;;7.38;5.32;;;17.00;82.40;;;;;;5033359;28;20043;-61
2022/09/16 07:31:34;;;;;;;6.22;4.63;;;17.00;82.40;;;;;;5032492;28;20033;-62
2022/09/16 07:34:03;;;;;;;7.65;5.28;;;17.00;82.40;;;;;;5032231;28;20042;-60
2022/09/16 07:36:34;;;;;;;7.93;5.65;;;17.00;82.80;;;;;;5029189;28;20124;-62
2022/09/16 07:39:00;;;;;;;6.13;5.20;;;17.00;82.80;;;;;;5031494;28;20488;-60
2022/09/16 07:41:33;;;;;;;5.72;5.13;;;17.00;82.70;;;;;;5030498;28;20045;-60
2022/09/16 07:44:00;;;;;;;6.55;5.18;;;17.10;82.80;;;;;;5029922;28;20642;-60
2022/09/16 07:46:28;;;;;;;5.57;5.03;;;17.00;82.70;;;;;;5030820;28;20037;-61
2022/09/16 07:48:54;;;;;;;5.38;4.88;;;17.10;82.70;;;;;;5028773;28;20469;-60
2022/09/16 07:51:23;;;;;;;6.32;4.60;;;17.10;82.60;;;;;;5032946;28;20040;-60
2022/09/16 07:53:53;;;;;;;5.68;5.00;;;17.10;82.60;;;;;;5031688;28;20398;-61
2022/09/16 07:56:21;;;;;;;5.53;4.95;;;17.10;82.60;;;;;;5027764;28;20080;-60
2022/09/16 07:58:47;;;;;;;5.35;4.85;;;17.10;82.80;;;;;;5032079;28;20025;-61
2022/09/16 08:01:14;;;;;;;5.32;4.82;;;17.10;82.90;;;;;;5029266;28;20413;-61
2022/09/16 08:03:41;;;;;;;6.90;4.97;;;17.10;82.90;;;;;;5028480;28;20500;-61
2022/09/16 08:06:13;;;;;;;5.63;5.03;;;17.10;82.90;;;;;;5029909;28;20045;-61
2022/09/16 08:08:39;;;;;;;5.20;4.65;;;17.20;82.70;;;;;;5031127;28;20041;-61
2022/09/16 08:11:06;;;;;;;5.45;4.95;;;17.20;82.80;;;;;;5029402;28;20540;-60
2022/09/16 08:13:33;;;;;;;6.13;4.85;;;17.20;82.90;;;;;;5027727;28;20033;-61
2022/09/16 08:16:01;;;;;;;6.80;5.10;;;17.20;83.60;;;;;;5031888;28;20070;-61
2022/09/16 08:18:26;;;;;;;6.18;5.20;;;17.20;82.60;;;;;;5031137;28;20064;-59
2022/09/16 08:20:52;;;;;;;6.15;5.18;;;17.30;82.60;;;;;;5029477;28;20639;-60
2022/09/16 08:23:18;;;;;;;5.38;4.88;;;17.30;82.30;;;;;;5030842;28;20044;-59
2022/09/16 08:25:44;;;;;;;5.47;4.85;;;17.30;82.30;;;;;;5030352;28;20045;-60
2022/09/16 08:28:14;;;;;;;12.57;6.25;;;17.30;82.40;;;;;;5028631;28;20044;-61
2022/09/16 08:30:40;;;;;;;7.03;5.50;;;17.30;82.30;;;;;;5028960;28;20029;-61
2022/09/16 08:33:06;;;;;;;6.03;5.47;;;17.20;82.20;;;;;;5030320;28;20772;-62
2022/09/16 08:35:31;;;;;;;9.05;6.10;;;17.20;82.40;;;;;;5029030;28;20861;-60
2022/09/16 08:37:58;;;;;;;8.40;5.80;;;17.20;82.70;;;;;;5026627;28;20022;-62
2022/09/16 08:40:25;;;;;;;6.93;6.00;;;17.20;82.90;;;;;;5022886;28;20036;-60
2022/09/16 08:43:08;;;;;;;7.65;5.80;;;17.20;83.00;;;;;;5025766;28;20039;-61
2022/09/16 08:45:39;;;;;;;7.00;6.13;;;17.20;83.10;;;;;;5031372;28;20041;-61
2022/09/16 08:48:14;;;;;;;6.82;6.18;;;17.20;83.20;;;;;;5031306;28;20086;-60
2022/09/16 08:50:43;;;;;;;8.73;5.95;;;17.10;84.20;;;;;;5027556;28;20583;-59
2022/09/16 08:53:32;;;;;;;6.30;5.68;;;17.10;83.30;;;;;;5029325;28;20389;-60
2022/09/16 08:56:01;;;;;;;6.38;5.65;;;17.10;83.20;;;;;;5031219;28;20029;-60
2022/09/16 08:58:50;;;;;;;6.25;5.65;;;17.10;83.20;;;;;;5032144;28;20041;-61
2022/09/16 09:01:55;;;;;;;7.03;5.65;;;17.10;83.90;;;;;;5030137;28;20437;-61
2022/09/16 09:04:21;;;;;;;5.65;5.13;;;17.10;83.80;;;;;;5030326;28;20476;-59
2022/09/16 09:07:11;;;;;;;9.00;5.57;;;17.10;83.60;;;;;;5030685;28;20526;-60
2022/09/16 09:10:08;;;;;;;6.97;5.32;;;17.20;84.00;;;;;;5029611;28;20041;-60
2022/09/16 09:13:03;;;;;;;5.57;4.95;;;17.20;84.30;;;;;;5026947;28;20063;-61
2022/09/16 09:15:47;;;;;;;5.90;5.30;;;17.20;84.30;;;;;;5035493;28;20041;-62
2022/09/16 09:18:38;;;;;;;6.07;5.55;;;17.30;84.30;;;;;;5034889;28;20437;-59
2022/09/16 09:21:35;;;;;;;6.63;5.40;;;17.30;84.60;;;;;;5029875;28;20061;-60
2022/09/16 09:24:19;;;;;;;6.72;5.70;;;17.40;84.40;;;;;;5033938;28;20048;-60
2022/09/16 09:26:50;;;;;;;5.90;5.30;;;17.50;84.30;;;;;;5025164;28;20042;-60
2022/09/16 09:29:40;;;;;;;6.15;5.55;;;17.50;84.10;;;;;;5031613;28;20040;-61
2022/09/16 09:32:37;;;;;;;5.38;4.88;;;17.50;84.00;;;;;;5029944;28;20033;-59
2022/09/16 09:35:26;;;;;;;6.80;5.40;;;17.60;83.60;;;;;;5015816;28;20036;-60
2022/09/16 09:38:04;;;;;;;6.55;5.32;;;17.60;83.40;;;;;;5033063;28;20401;-60
2022/09/16 09:40:36;;;;;;;7.10;5.53;;;17.60;83.00;;;;;;5027706;28;20138;-60
2022/09/16 09:43:15;;;;;;;6.03;5.20;;;17.60;82.90;;;;;;5027808;28;20343;-61
2022/09/16 09:46:14;;;;;;;3.75;3.38;;;17.70;82.90;;;;;;5026022;28;20120;-60
2022/09/16 09:49:08;;;;;;;3.00;2.70;;;17.70;81.10;;;;;;5029897;28;20451;-61
2022/09/16 09:51:37;;;;;;;2.10;1.90;;;17.60;77.30;;;;;;5030866;28;20075;-59
2022/09/16 09:54:35;;;;;;;2.08;1.25;;;17.40;75.80;;;;;;5029529;28;20587;-60
2022/09/16 09:57:22;;;;;;;2.95;1.10;;;17.00;76.60;;;;;;5008191;28;20038;-61
2022/09/16 10:00:06;;;;;;;1.52;1.30;;;16.80;77.50;;;;;;5008049;28;20034;-58
2022/09/16 10:02:33;;;;;;;2.00;1.52;;;16.50;78.30;;;;;;5012987;28;20033;-59
2022/09/16 10:04:59;;;;;;;2.00;1.40;;;16.30;78.90;;;;;;5012947;28;20041;-60
2022/09/16 10:07:27;;;;;;;1.40;1.30;;;16.20;79.50;;;;;;5010146;28;20040;-60
2022/09/16 10:09:59;;;;;;;3.95;1.00;;;16.10;79.40;;;;;;5014066;28;20041;-58
2022/09/16 10:12:31;;;;;;;1.60;1.00;;;15.90;79.20;;;;;;5006087;28;20065;-60
2022/09/16 10:14:57;;;;;;;1.20;1.10;;;15.80;78.90;;;;;;5012608;28;20125;-59
2022/09/16 10:17:24;;;;;;;1.48;1.02;;;15.60;80.00;;;;;;5012457;28;20461;-59
2022/09/16 10:19:55;;;;;;;1.52;1.10;;;15.50;81.20;;;;;;5012116;28;20408;-60
2022/09/16 10:22:29;;;;;;;1.17;0.90;;;15.40;81.40;;;;;;5012366;28;20029;-58
2022/09/16 10:24:59;;;;;;;2.00;1.00;;;15.30;81.60;;;;;;5030804;28;20040;-61
2022/09/16 10:27:34;;;;;;;1.25;1.15;;;15.30;81.70;;;;;;5031937;28;20125;-60
2022/09/16 10:30:18;;;;;;;0.77;0.77;;;15.20;82.10;;;;;;5031905;28;20146;-56
2022/09/16 10:32:49;;;;;;;1.05;0.95;;;15.10;81.70;;;;;;5028256;28;20053;-60
2022/09/16 10:35:20;;;;;;;1.45;1.10;;;15.10;81.70;;;;;;5034943;28;20052;-60
2022/09/16 10:37:56;;;;;;;0.88;0.88;;;15.00;81.90;;;;;;5030750;28;20491;-60
2022/09/16 10:40:23;;;;;;;1.27;1.13;;;14.90;82.20;;;;;;5030907;28;20041;-59
2022/09/16 10:42:52;;;;;;;4.45;1.05;;;14.90;83.00;;;;;;5029844;28;20433;-60
2022/09/16 10:45:28;;;;;;;1.30;1.13;;;14.90;84.00;;;;;;5012818;28;20037;-59
2022/09/16 10:47:57;;;;;;;1.30;1.20;;;14.90;84.40;;;;;;5009931;28;20509;-59
2022/09/16 10:50:24;;;;;;;1.35;1.25;;;15.00;84.70;;;;;;5012343;28;20377;-60
2022/09/16 10:52:50;;;;;;;1.30;1.20;;;15.00;84.70;;;;;;5014216;28;20044;-60
2022/09/16 10:55:19;;;;;;;1.27;1.17;;;15.10;84.00;;;;;;5011843;28;20037;-59
2022/09/16 10:57:45;;;;;;;1.35;1.17;;;15.10;84.30;;;;;;5014689;28;20530;-60
2022/09/16 11:00:22;;;;;;;1.58;0.98;;;15.20;84.30;;;;;;5013792;28;20061;-60
2022/09/16 11:03:31;;;;;;;1.20;1.10;;;15.20;83.80;;;;;;5013371;28;20030;-60
2022/09/16 11:06:18;;;;;;;1.17;1.08;;;15.30;84.10;;;;;;5011274;28;20041;-59
2022/09/16 11:09:04;;;;;;;2.83;1.30;;;15.30;84.30;;;;;;5012658;28;20100;-60
2022/09/16 11:11:39;;;;;;;1.13;1.10;;;15.40;84.10;;;;;;5012377;28;20619;-59
2022/09/16 11:14:16;;;;;;;3.17;1.23;;;15.40;84.00;;;;;;5014057;28;20066;-61
2022/09/16 11:16:47;;;;;;;2.20;1.20;;;15.50;84.00;;;;;;5013744;28;20045;-58
2022/09/16 11:19:35;;;;;;;1.80;1.50;;;15.50;83.60;;;;;;5011742;28;20049;-60
2022/09/16 11:22:19;;;;;;;1.20;1.10;;;15.60;83.10;;;;;;5016298;28;20556;-60
2022/09/16 11:24:59;;;;;;;2.63;1.38;;;15.60;83.40;;;;;;5014074;28;20037;-60
2022/09/16 11:27:25;;;;;;;1.92;1.35;;;15.60;83.00;;;;;;5015045;28;20133;-60
2022/09/16 11:29:59;;;;;;;1.77;1.67;;;15.70;83.20;;;;;;5007578;28;20058;-60
2022/09/16 11:32:34;;;;;;;1.70;1.60;;;15.70;83.10;;;;;;5013249;28;20038;-60
2022/09/16 11:35:31;;;;;;;1.50;1.40;;;15.80;83.10;;;;;;5031029;28;20057;-60
2022/09/16 11:38:12;;;;;;;2.28;1.60;;;15.80;82.90;;;;;;5029330;28;20443;-58
2022/09/16 11:41:05;;;;;;;1.75;1.65;;;15.90;82.60;;;;;;5024385;28;20375;-60
2022/09/16 11:43:47;;;;;;;1.67;1.55;;;15.90;82.70;;;;;;5029795;28;20106;-60
2022/09/16 11:46:19;;;;;;;1.73;1.60;;;16.00;81.90;;;;;;5025737;28;20550;-59
2022/09/16 11:49:26;;;;;;;2.47;1.48;;;16.00;82.80;;;;;;5030223;28;20041;-58
2022/09/16 11:52:29;;;;;;;1.67;1.58;;;16.00;83.10;;;;;;5031866;28;20033;-60
2022/09/16 11:55:33;;;;;;;1.60;1.35;;;16.10;83.70;;;;;;5027133;28;20489;-60
2022/09/16 11:58:08;;;;;;;1.83;1.48;;;16.20;82.50;;;;;;5039392;28;20124;-61
2022/09/16 12:00:34;;;;;;;;;;;16.20;81.60;;;;;;5037481;28;20539;-60
2022/09/16 12:03:19;;;;;;;1.92;1.63;;;16.20;80.00;;;;;;5035771;28;19916;-61
2022/09/16 12:05:52;;;;;;;2.00;1.90;;;16.20;81.20;;;;;;5031677;28;20526;-60
2022/09/16 12:08:41;;;;;;;2.20;1.70;;;16.20;81.10;;;;;;5031953;28;20025;-61
2022/09/16 12:11:33;;;;;;;1.75;1.65;;;16.30;80.50;;;;;;5026240;28;20064;-61
2022/09/16 12:14:21;;;;;;;3.00;1.83;;;16.20;79.10;;;;;;5029586;28;20579;-60
2022/09/16 12:17:10;;;;;;;1.80;1.70;;;16.20;78.60;;;;;;5030544;28;20052;-61
2022/09/16 12:19:46;;;;;;;3.42;1.85;;;16.20;78.20;;;;;;5031752;28;20387;-60
2022/09/16 12:22:28;;;;;;;1.80;1.70;;;16.20;78.20;;;;;;5028435;28;20112;-61
2022/09/16 12:25:06;;;;;;;1.90;1.80;;;16.10;78.00;;;;;;5028817;28;20068;-61
2022/09/16 12:27:49;;;;;;;2.25;2.03;;;16.10;78.30;;;;;;5029499;28;20576;-56
2022/09/16 12:30:18;;;;;;;4.20;2.30;;;16.00;78.60;;;;;;5028208;28;20095;-60
2022/09/16 12:33:02;;;;;;;2.50;2.30;;;16.00;79.20;;;;;;5030838;28;20389;-60
2022/09/16 12:35:33;;;;;;;3.55;2.70;;;16.00;80.00;;;;;;5027239;28;20041;-61
2022/09/16 12:37:59;;;;;;;2.78;2.45;;;15.90;80.00;;;;;;5031093;28;20025;-60
2022/09/16 12:40:38;;;;;;;2.60;2.25;;;15.90;79.90;;;;;;5029131;28;20033;-59
2022/09/16 12:43:18;;;;;;;2.88;2.00;;;15.90;80.00;;;;;;5032292;28;20520;-61
2022/09/16 12:46:27;;;;;;;3.85;2.10;;;15.90;79.90;;;;;;5034264;28;20037;-60
2022/09/16 12:49:17;;;;;;;3.13;2.55;;;15.90;78.70;;;;;;5033837;28;20041;-61
2022/09/16 12:52:00;;;;;;;2.30;2.10;;;15.90;79.40;;;;;;5025169;28;20034;-59
2022/09/16 12:54:51;;;;;;;2.63;2.28;;;15.90;79.60;;;;;;5013225;28;20469;-61
2022/09/16 12:57:28;;;;;;;3.30;2.47;;;15.90;80.10;;;;;;5012840;28;20393;-58
2022/09/16 13:00:08;;;;;;;2.35;2.10;;;15.90;80.10;;;;;;5011936;28;20048;-60
2022/09/16 13:02:43;;;;;;;2.55;2.10;;;15.90;79.50;;;;;;5010536;28;20045;-60
2022/09/16 13:05:26;;;;;;;3.63;1.90;;;15.90;78.60;;;;;;5013872;28;20037;-59
2022/09/16 13:07:56;;;;;;;1.83;1.67;;;15.90;78.00;;;;;;5015432;28;20037;-58
2022/09/16 13:10:30;;;;;;;2.17;1.73;;;15.90;77.40;;;;;;5015628;28;20132;-59
2022/09/16 13:13:00;;;;;;;2.22;1.75;;;15.90;77.30;;;;;;5008562;28;20115;-61
2022/09/16 13:15:30;;;;;;;3.50;1.67;;;15.90;77.20;;;;;;5016899;28;20087;-60
2022/09/16 13:18:07;;;;;;;1.77;1.35;;;15.90;76.90;;;;;;5031701;28;20104;-61
2022/09/16 13:20:41;;;;;;;3.75;1.85;;;15.80;76.00;;;;;;5031151;28;20594;-59